createdAt,value
2019-01-19T00:00:36.576Z,102064.91
2019-01-19T00:03:44.840Z,102059.05
2019-01-19T00:07:01.478Z,102054.95
2019-01-19T00:10:10.660Z,102052.31
2019-01-19T00:13:31.912Z,102050.08
2019-01-19T00:16:17.333Z,102041.56
2019-01-19T00:19:50.483Z,102045.73
2019-01-19T00:23:24.521Z,102048.89
2019-01-19T00:26:54.757Z,102047.47
2019-01-19T00:30:08.337Z,102040.94
2019-01-19T00:33:19.304Z,102038.61
2019-01-19T00:37:02.957Z,102042.42
2019-01-19T00:40:34.220Z,102033.07
2019-01-19T00:43:38.602Z,102046.70
2019-01-19T00:47:02.168Z,102047.20
2019-01-19T00:49:47.860Z,102047.09
2019-01-19T00:53:10.096Z,102044.02
2019-01-19T00:56:06.216Z,102044.84
2019-01-19T00:58:56.447Z,102045.19
2019-01-19T01:02:14.455Z,102045.39
2019-01-19T01:05:32.934Z,102039.98
2019-01-19T01:09:09.192Z,102039.66
2019-01-19T01:12:07.869Z,102042.91
2019-01-19T01:15:54.883Z,102049.02
2019-01-19T01:19:24.541Z,102043.82
2019-01-19T01:23:06.091Z,102046.62
2019-01-19T01:26:54.219Z,102049.93
2019-01-19T01:30:30.593Z,102046.72
2019-01-19T01:33:44.379Z,102045.77
2019-01-19T01:37:20.072Z,102050.73
2019-01-19T01:40:37.651Z,102049.38
2019-01-19T01:43:53.588Z,102044.48
2019-01-19T01:47:41.285Z,102047.95
2019-01-19T01:51:01.431Z,102044.65
2019-01-19T01:54:28.948Z,102044.48
2019-01-19T01:57:07.274Z,102041.11
2019-01-19T02:00:25.076Z,102039.35
2019-01-19T02:04:10.569Z,102046.58
2019-01-19T02:07:08.136Z,102045.47
2019-01-19T02:10:37.267Z,102039.44
2019-01-19T02:13:50.591Z,102043.39
2019-01-19T02:17:26.200Z,102042.78
2019-01-19T02:20:40.826Z,102038.80
2019-01-19T02:24:01.415Z,102041.10
2019-01-19T02:27:23.733Z,102029.62
2019-01-19T02:30:44.423Z,102033.31
2019-01-19T02:34:07.670Z,102039.90
2019-01-19T02:37:19.116Z,102036.74
2019-01-19T02:40:11.958Z,102035.66
2019-01-19T02:42:53.393Z,102037.67
2019-01-19T02:46:23.122Z,102035.30
2019-01-19T02:50:08.357Z,102039.59
2019-01-19T02:53:27.100Z,102042.76
2019-01-19T02:56:42.679Z,102042.97
2019-01-19T02:59:53.052Z,102038.34
2019-01-19T03:03:24.899Z,102033.59
2019-01-19T03:06:40.895Z,102037.05
2019-01-19T03:09:42.437Z,102026.61
2019-01-19T03:12:59.762Z,102031.43
2019-01-19T03:16:27.594Z,102032.89
2019-01-19T03:19:22.391Z,102027.84
2019-01-19T03:22:45.899Z,102029.50
2019-01-19T03:26:02.821Z,102033.44
2019-01-19T03:29:25.068Z,102029.36
2019-01-19T03:32:46.684Z,102030.73
2019-01-19T03:36:06.945Z,102024.86
2019-01-19T03:39:15.921Z,102031.62
2019-01-19T03:42:49.086Z,102026.97
2019-01-19T03:46:11.289Z,102029.13
2019-01-19T03:50:04.027Z,102026.56
2019-01-19T03:53:40.808Z,102027.84
2019-01-19T03:57:10.593Z,102023.52
2019-01-19T04:00:23.850Z,102022.56
2019-01-19T04:03:55.426Z,102020.07
2019-01-19T04:07:19.304Z,102023.57
2019-01-19T04:10:40.025Z,102018.30
2019-01-19T04:14:00.306Z,102013.48
2019-01-19T04:17:28.866Z,102017.65
2019-01-19T04:21:00.804Z,102013.55
2019-01-19T04:23:31.315Z,102016.20
2019-01-19T04:26:30.420Z,102009.25
2019-01-19T04:29:00.946Z,102012.84
2019-01-19T04:31:31.462Z,102013.00
2019-01-19T04:34:02.181Z,102017.67
2019-01-19T04:36:32.974Z,102013.74
2019-01-19T04:39:03.598Z,102014.94
2019-01-19T04:41:33.883Z,102014.31
2019-01-19T04:44:04.256Z,102020.07
2019-01-19T04:46:34.548Z,102014.84
2019-01-19T04:49:05.043Z,102014.72
2019-01-19T04:51:35.361Z,102020.00
2019-01-19T04:54:05.784Z,102016.05
2019-01-19T04:56:36.093Z,102018.62
2019-01-19T04:59:06.544Z,102019.05
2019-01-19T05:01:36.839Z,102021.91
2019-01-19T05:04:07.436Z,102025.08
2019-01-19T05:06:37.797Z,102024.89
2019-01-19T05:09:09.662Z,102015.55
2019-01-19T05:11:39.964Z,102022.06
2019-01-19T05:14:10.306Z,102017.97
2019-01-19T05:16:40.653Z,102014.45
2019-01-19T05:19:10.951Z,102000.41
2019-01-19T05:21:41.346Z,102014.82
2019-01-19T05:24:11.647Z,102012.52
2019-01-19T05:26:42.199Z,102007.13
2019-01-19T05:29:12.627Z,102007.65
2019-01-19T05:31:42.896Z,102017.08
2019-01-19T05:34:13.207Z,102006.81
2019-01-19T05:36:43.711Z,102011.62
2019-01-19T05:39:14.238Z,102017.08
2019-01-19T05:41:44.548Z,102018.39
2019-01-19T05:44:15.202Z,102016.42
2019-01-19T05:46:45.530Z,102019.42
2019-01-19T05:49:16.117Z,102023.72
2019-01-19T05:51:46.540Z,102018.91
2019-01-19T05:54:16.908Z,102016.28
2019-01-19T05:56:47.506Z,102022.59
2019-01-19T05:59:17.867Z,102014.98
2019-01-19T06:01:48.217Z,102012.27
2019-01-19T06:04:18.497Z,102012.87
2019-01-19T06:06:48.850Z,102017.83
2019-01-19T06:09:19.138Z,102020.42
2019-01-19T06:11:49.510Z,102025.14
2019-01-19T06:14:19.830Z,102023.13
2019-01-19T06:16:50.367Z,102022.92
2019-01-19T06:19:20.989Z,102027.39
2019-01-19T06:21:56.171Z,102023.69
2019-01-19T06:24:26.521Z,102022.64
2019-01-19T06:26:56.848Z,102028.43
2019-01-19T06:29:27.195Z,102027.13
2019-01-19T06:31:57.535Z,102027.70
2019-01-19T06:34:27.863Z,102029.11
2019-01-19T06:36:58.164Z,102030.48
2019-01-19T06:39:28.721Z,102026.65
2019-01-19T06:41:59.011Z,102028.83
2019-01-19T06:44:29.316Z,102026.95
2019-01-19T06:46:59.729Z,102033.45
2019-01-19T06:49:30.076Z,102030.52
2019-01-19T06:52:00.748Z,102025.75
2019-01-19T06:54:31.474Z,102023.61
2019-01-19T06:57:01.930Z,102024.45
2019-01-19T06:59:32.273Z,102028.25
2019-01-19T07:02:02.627Z,102025.97
2019-01-19T07:04:32.974Z,102026.07
2019-01-19T07:07:04.536Z,102029.69
2019-01-19T07:09:35.642Z,102031.30
2019-01-19T07:12:06.554Z,102032.89
2019-01-19T07:14:37.242Z,102036.22
2019-01-19T07:17:07.586Z,102036.05
2019-01-19T07:19:37.857Z,102035.41
2019-01-19T07:22:08.295Z,102034.67
2019-01-19T07:24:38.629Z,102040.27
2019-01-19T07:27:08.964Z,102042.64
2019-01-19T07:29:39.869Z,102037.73
2019-01-19T07:32:10.462Z,102040.06
2019-01-19T07:34:40.793Z,102034.56
2019-01-19T07:37:11.210Z,102044.48
2019-01-19T07:39:41.537Z,102041.88
2019-01-19T07:42:11.816Z,102042.96
2019-01-19T07:44:42.110Z,102046.38
2019-01-19T07:47:13.007Z,102047.58
2019-01-19T07:49:43.270Z,102057.08
2019-01-19T07:52:13.454Z,102053.40
2019-01-19T07:54:43.803Z,102058.30
2019-01-19T07:57:14.088Z,102052.29
2019-01-19T07:59:44.766Z,102051.70
2019-01-19T08:02:15.052Z,102052.85
2019-01-19T08:04:45.383Z,102056.13
2019-01-19T08:07:17.400Z,102051.95
2019-01-19T08:09:48.326Z,102051.78
2019-01-19T08:12:18.642Z,102055.03
2019-01-19T08:14:49.041Z,102051.23
2019-01-19T08:17:19.354Z,102049.19
2019-01-19T08:19:49.617Z,102051.59
2019-01-19T08:22:20.217Z,102060.02
2019-01-19T08:24:50.513Z,102058.41
2019-01-19T08:27:21.380Z,102058.82
2019-01-19T08:29:51.922Z,102064.52
2019-01-19T08:32:22.248Z,102062.89
2019-01-19T08:34:52.633Z,102065.00
2019-01-19T08:37:24.509Z,102059.56
2019-01-19T08:39:54.913Z,102058.23
2019-01-19T08:42:25.194Z,102060.55
2019-01-19T08:44:56.698Z,102067.94
2019-01-19T08:47:27.050Z,102059.20
2019-01-19T08:49:57.577Z,102063.84
2019-01-19T08:52:27.929Z,102072.57
2019-01-19T08:54:58.494Z,102074.58
2019-01-19T08:57:29.110Z,102078.59
2019-01-19T08:59:59.437Z,102076.30
2019-01-19T09:02:29.697Z,102077.48
2019-01-19T09:05:00.246Z,102082.88
2019-01-19T09:07:33.778Z,102079.41
2019-01-19T09:10:02.636Z,102079.23
2019-01-19T09:12:32.909Z,102076.78
2019-01-19T09:15:03.285Z,102076.04
2019-01-19T09:17:33.549Z,102078.13
2019-01-19T09:20:03.967Z,102076.92
2019-01-19T09:22:34.319Z,102076.50
2019-01-19T09:25:05.358Z,102072.75
2019-01-19T09:27:35.582Z,102068.47
2019-01-19T09:30:08.488Z,102073.83
2019-01-19T09:32:38.887Z,102068.06
2019-01-19T09:35:09.801Z,102070.63
2019-01-19T09:37:40.976Z,102076.22
2019-01-19T09:40:13.219Z,102079.73
2019-01-19T09:42:43.984Z,102076.70
2019-01-19T09:45:15.027Z,102082.56
2019-01-19T09:47:45.363Z,102082.60
2019-01-19T09:50:16.360Z,102077.77
2019-01-19T09:52:46.761Z,102082.26
2019-01-19T09:55:17.021Z,102083.60
2019-01-19T09:57:47.310Z,102081.03
2019-01-19T10:00:18.523Z,102076.98
2019-01-19T10:02:48.824Z,102081.28
2019-01-19T10:05:21.799Z,102079.05
2019-01-19T10:07:52.209Z,102074.93
2019-01-19T10:10:22.531Z,102074.08
2019-01-19T10:12:53.129Z,102075.70
2019-01-19T10:15:23.569Z,102073.23
2019-01-19T10:17:53.809Z,102073.44
2019-01-19T10:20:25.857Z,102077.05
2019-01-19T10:22:56.058Z,102074.43
2019-01-19T10:25:26.533Z,102075.53
2019-01-19T10:27:56.817Z,102071.13
2019-01-19T10:30:27.738Z,102070.50
2019-01-19T10:32:58.183Z,102071.50
2019-01-19T10:35:28.739Z,102067.16
2019-01-19T10:37:59.001Z,102071.11
2019-01-19T10:40:29.341Z,102069.70
2019-01-19T10:42:59.641Z,102061.02
2019-01-19T10:45:29.949Z,102062.23
2019-01-19T10:48:00.304Z,102061.83
2019-01-19T10:50:30.575Z,102060.23
2019-01-19T10:53:01.283Z,102060.69
2019-01-19T10:55:31.811Z,102050.04
2019-01-19T10:58:02.183Z,102056.35
2019-01-19T11:00:32.740Z,102058.67
2019-01-19T11:03:03.209Z,102051.03
2019-01-19T11:05:33.666Z,102052.30
2019-01-19T11:08:05.358Z,102049.95
2019-01-19T11:10:35.554Z,102047.66
2019-01-19T11:13:05.923Z,102051.32
2019-01-19T11:15:36.247Z,102044.02
2019-01-19T11:18:06.662Z,102039.55
2019-01-19T11:20:37.133Z,102042.02
2019-01-19T11:23:07.454Z,102027.98
2019-01-19T11:25:37.730Z,102024.09
2019-01-19T11:28:08.251Z,102027.54
2019-01-19T11:30:38.522Z,102023.45
2019-01-19T11:33:08.808Z,102025.62
2019-01-19T11:35:39.200Z,102015.31
2019-01-19T11:38:12.095Z,102019.91
2019-01-19T11:40:41.499Z,102016.08
2019-01-19T11:43:12.435Z,102013.89
2019-01-19T11:45:42.715Z,102005.89
2019-01-19T11:48:13.017Z,102000.54
2019-01-19T11:50:43.385Z,101998.06
2019-01-19T11:53:13.664Z,101992.83
2019-01-19T11:55:43.927Z,101991.97
2019-01-19T11:58:14.214Z,101995.59
2019-01-19T12:00:44.573Z,101989.84
2019-01-19T12:03:14.842Z,101986.70
2019-01-19T12:05:45.229Z,101988.95
2019-01-19T12:08:19.715Z,101990.53
2019-01-19T12:10:47.608Z,101985.63
2019-01-19T12:13:17.897Z,101985.55
2019-01-19T12:15:48.158Z,101984.31
2019-01-19T12:18:18.434Z,101988.42
2019-01-19T12:20:51.432Z,101985.36
2019-01-19T12:23:21.802Z,101984.05
2019-01-19T12:25:52.287Z,101979.09
2019-01-19T12:28:22.567Z,101980.16
2019-01-19T12:30:52.896Z,101974.80
2019-01-19T12:33:23.183Z,101973.66
2019-01-19T12:35:53.705Z,101974.15
2019-01-19T12:38:26.961Z,101971.69
2019-01-19T12:40:56.198Z,101973.81
2019-01-19T12:43:26.966Z,101969.09
2019-01-19T12:46:07.015Z,101969.98
2019-01-19T12:48:37.320Z,101966.06
2019-01-19T12:51:10.957Z,101959.06
2019-01-19T12:53:41.306Z,101953.65
2019-01-19T12:56:11.631Z,101956.67
2019-01-19T12:58:41.923Z,101948.43
2019-01-19T13:01:12.543Z,101943.00
2019-01-19T13:03:42.809Z,101943.29
2019-01-19T13:06:40.754Z,101932.95
2019-01-19T13:09:43.566Z,101944.64
2019-01-19T13:12:38.730Z,101940.41
2019-01-19T13:16:21.789Z,101934.23
2019-01-19T13:19:53.761Z,101928.37
2019-01-19T13:23:35.252Z,101920.20
2019-01-19T13:27:01.838Z,101917.94
2019-01-19T13:30:59.890Z,101917.48
2019-01-19T13:34:03.402Z,101918.98
2019-01-19T13:37:06.845Z,101912.11
2019-01-19T13:40:41.971Z,101910.25
2019-01-19T13:43:47.871Z,101917.93
2019-01-19T13:47:34.538Z,101902.01
2019-01-19T13:51:23.204Z,101910.45
2019-01-19T13:54:40.027Z,101903.42
2019-01-19T13:58:13.095Z,101895.86
2019-01-19T14:01:57.904Z,101907.59
2019-01-19T14:05:12.962Z,101909.50
2019-01-19T14:08:34.323Z,101909.40
2019-01-19T14:11:59.141Z,101903.84
2019-01-19T14:14:47.155Z,101903.28
2019-01-19T14:17:47.926Z,101899.70
2019-01-19T14:20:48.799Z,101892.95
2019-01-19T14:24:28.260Z,101895.33
2019-01-19T14:27:51.309Z,101898.34
2019-01-19T14:31:29.048Z,101886.77
2019-01-19T14:34:33.856Z,101887.37
2019-01-19T14:37:57.301Z,101888.85
2019-01-19T14:41:19.006Z,101891.19
2019-01-19T14:45:04.579Z,101884.37
2019-01-19T14:47:59.995Z,101889.69
2019-01-19T14:51:24.082Z,101883.17
2019-01-19T14:54:41.760Z,101883.66
2019-01-19T14:58:00.411Z,101877.34
2019-01-19T15:01:31.059Z,101877.87
2019-01-19T15:04:51.379Z,101874.14
2019-01-19T15:08:14.033Z,101879.12
2019-01-19T15:11:29.671Z,101877.64
2019-01-19T15:15:02.847Z,101874.80
2019-01-19T15:18:28.328Z,101876.94
2019-01-19T15:21:41.086Z,101875.61
2019-01-19T15:24:56.627Z,101875.58
2019-01-19T15:27:54.450Z,101869.94
2019-01-19T15:30:54.585Z,101874.41
2019-01-19T15:34:05.880Z,101871.84
2019-01-19T15:37:39.299Z,101872.27
2019-01-19T15:41:10.459Z,101869.21
2019-01-19T15:44:34.789Z,101870.61
2019-01-19T15:48:11.763Z,101870.77
2019-01-19T15:52:05.727Z,101874.14
2019-01-19T15:55:50.301Z,101873.66
2019-01-19T15:59:13.232Z,101876.78
2019-01-19T16:02:29.294Z,101878.80
2019-01-19T16:05:39.404Z,101873.38
2019-01-19T16:08:52.911Z,101880.41
2019-01-19T16:11:46.463Z,101876.14
2019-01-19T16:15:04.867Z,101879.16
2019-01-19T16:18:59.484Z,101874.80
2019-01-19T16:22:30.228Z,101874.20
2019-01-19T16:26:02.731Z,101879.00
2019-01-19T16:29:32.773Z,101876.25
2019-01-19T16:32:59.866Z,101873.85
2019-01-19T16:36:45.046Z,101878.38
2019-01-19T16:40:35.250Z,101872.70
2019-01-19T16:43:43.972Z,101882.80
2019-01-19T16:47:07.737Z,101880.91
2019-01-19T16:50:34.925Z,101881.53
2019-01-19T16:54:02.968Z,101880.80
2019-01-19T16:57:20.820Z,101872.23
2019-01-19T17:00:40.868Z,101872.19
2019-01-19T17:04:06.317Z,101875.60
2019-01-19T17:08:00.976Z,101872.00
2019-01-19T17:10:51.879Z,101871.77
2019-01-19T17:14:18.762Z,101871.25
2019-01-19T17:17:22.249Z,101868.02
2019-01-19T17:20:29.993Z,101861.74
2019-01-19T17:24:01.689Z,101862.63
2019-01-19T17:27:19.353Z,101863.16
2019-01-19T17:30:36.420Z,101863.98
2019-01-19T17:33:42.038Z,101863.00
2019-01-19T17:36:54.590Z,101862.02
2019-01-19T17:40:05.493Z,101865.91
2019-01-19T17:43:21.896Z,101867.34
2019-01-19T17:46:45.308Z,101866.33
2019-01-19T17:53:01.712Z,101866.05
2019-01-19T17:56:16.522Z,101864.58
2019-01-19T17:59:49.115Z,101862.62
2019-01-19T18:03:28.819Z,101857.89
2019-01-19T18:06:31.574Z,101861.42
2019-01-19T18:10:01.031Z,101851.12
2019-01-19T18:13:13.881Z,101854.56
2019-01-19T18:16:06.423Z,101859.20
2019-01-19T18:19:26.954Z,101862.23
2019-01-19T18:22:54.020Z,101866.22
2019-01-19T18:26:02.439Z,101867.16
2019-01-19T18:29:20.719Z,101864.20
2019-01-19T18:32:28.927Z,101868.30
2019-01-19T18:35:34.667Z,101866.75
2019-01-19T18:39:01.893Z,101870.39
2019-01-19T18:42:29.990Z,101868.48
2019-01-19T18:46:22.138Z,101871.91
2019-01-19T18:49:37.878Z,101868.36
2019-01-19T18:53:07.429Z,101867.55
2019-01-19T18:56:19.519Z,101872.36
2019-01-19T18:59:19.641Z,101863.98
2019-01-19T19:02:33.444Z,101862.10
2019-01-19T19:06:03.192Z,101862.31
2019-01-19T19:09:27.332Z,101866.28
2019-01-19T19:12:37.970Z,101863.30
2019-01-19T19:15:44.713Z,101862.67
2019-01-19T19:18:40.064Z,101862.70
2019-01-19T19:22:10.825Z,101856.76
2019-01-19T19:25:37.364Z,101861.45
2019-01-19T19:29:12.798Z,101862.41
2019-01-19T19:32:21.809Z,101860.50
2019-01-19T19:36:02.270Z,101860.90
2019-01-19T19:39:26.766Z,101863.50
2019-01-19T19:42:49.803Z,101870.80
2019-01-19T19:46:04.461Z,101868.41
2019-01-19T19:49:17.462Z,101870.73
2019-01-19T19:52:04.309Z,101865.89
2019-01-19T19:54:36.127Z,101867.74
2019-01-19T19:57:06.856Z,101869.28
2019-01-19T19:59:40.370Z,101866.67
2019-01-19T20:02:10.744Z,101859.63
2019-01-19T20:04:41.168Z,101857.98
2019-01-19T20:07:11.778Z,101864.24
2019-01-19T20:09:42.307Z,101854.95
2019-01-19T20:12:12.656Z,101855.24
2019-01-19T20:14:42.920Z,101854.56
2019-01-19T20:17:13.248Z,101858.26
2019-01-19T20:19:43.735Z,101855.37
2019-01-19T20:22:13.979Z,101859.48
2019-01-19T20:24:44.319Z,101858.41
2019-01-19T20:27:14.861Z,101863.00
2019-01-19T20:29:45.242Z,101865.98
2019-01-19T20:32:15.764Z,101859.38
2019-01-19T20:34:46.091Z,101854.56
2019-01-19T20:37:16.409Z,101854.08
2019-01-19T20:39:46.741Z,101855.70
2019-01-19T20:42:17.268Z,101854.19
2019-01-19T20:44:47.697Z,101853.81
2019-01-19T20:47:17.943Z,101862.15
2019-01-19T20:49:48.704Z,101858.08
2019-01-19T20:52:19.035Z,101861.80
2019-01-19T20:54:49.291Z,101857.84
2019-01-19T20:57:19.512Z,101857.72
2019-01-19T20:59:49.768Z,101851.08
2019-01-19T21:02:20.086Z,101853.89
2019-01-19T21:04:50.482Z,101857.27
2019-01-19T21:07:20.799Z,101857.36
2019-01-19T21:09:51.059Z,101859.58
2019-01-19T21:12:21.487Z,101859.75
2019-01-19T21:14:52.023Z,101859.38
2019-01-19T21:17:23.416Z,101863.34
2019-01-19T21:19:53.766Z,101861.18
2019-01-19T21:22:24.049Z,101863.31
2019-01-19T21:24:54.396Z,101867.64
2019-01-19T21:27:24.699Z,101866.51
2019-01-19T21:29:55.006Z,101873.16
2019-01-19T21:32:25.261Z,101872.16
2019-01-19T21:34:55.784Z,101866.97
2019-01-19T21:37:26.123Z,101868.39
2019-01-19T21:39:56.420Z,101874.64
2019-01-19T21:42:26.774Z,101874.98
2019-01-19T21:44:57.011Z,101874.79
2019-01-19T21:47:27.315Z,101874.20
2019-01-19T21:49:57.608Z,101875.05
2019-01-19T21:52:27.866Z,101876.77
2019-01-19T21:54:58.197Z,101873.80
2019-01-19T21:57:28.533Z,101870.77
2019-01-19T21:59:58.777Z,101876.30
2019-01-19T22:02:29.255Z,101874.12
2019-01-19T22:04:59.737Z,101870.94
2019-01-19T22:07:30.041Z,101876.89
2019-01-19T22:10:00.296Z,101876.66
2019-01-19T22:12:30.816Z,101877.81
2019-01-19T22:15:01.096Z,101869.91
2019-01-19T22:17:31.325Z,101870.28
2019-01-19T22:20:01.669Z,101867.05
2019-01-19T22:22:31.958Z,101870.67
2019-01-19T22:25:02.262Z,101877.18
2019-01-19T22:27:32.916Z,101871.88
2019-01-19T22:30:03.299Z,101873.15
2019-01-19T22:32:33.569Z,101872.95
2019-01-19T22:35:04.268Z,101867.01
2019-01-19T22:37:34.514Z,101865.30
2019-01-19T22:40:06.161Z,101874.50
2019-01-19T22:42:36.529Z,101877.31
2019-01-19T22:45:10.171Z,101875.10
2019-01-19T22:47:40.474Z,101869.14
2019-01-19T22:50:13.925Z,101874.94
2019-01-19T22:52:44.293Z,101874.39
2019-01-19T22:55:14.784Z,101871.44
2019-01-19T22:57:45.225Z,101871.57
2019-01-19T23:01:02.971Z,101868.06
2019-01-19T23:03:39.063Z,101873.69
2019-01-19T23:06:09.731Z,101875.30
2019-01-19T23:08:40.042Z,101872.62
2019-01-19T23:11:10.432Z,101874.00
2019-01-19T23:13:40.975Z,101873.27
2019-01-19T23:16:11.299Z,101873.61
2019-01-19T23:18:41.583Z,101876.96
2019-01-19T23:21:11.930Z,101870.31
2019-01-19T23:23:42.190Z,101869.11
2019-01-19T23:26:12.996Z,101869.47
2019-01-19T23:28:43.572Z,101870.64
2019-01-19T23:31:13.951Z,101870.84
2019-01-19T23:33:44.226Z,101871.55
2019-01-19T23:36:14.566Z,101869.70
2019-01-19T23:38:44.842Z,101865.00
2019-01-19T23:41:15.115Z,101863.84
2019-01-19T23:43:45.439Z,101861.53
2019-01-19T23:46:15.723Z,101870.73
2019-01-19T23:48:46.058Z,101859.93
2019-01-19T23:51:16.325Z,101857.30
2019-01-19T23:53:46.754Z,101863.87
2019-01-19T23:56:17.128Z,101859.94
2019-01-19T23:58:47.420Z,101860.96
